Time;durP1;ratioP1;P1;durP2;ratioP2;P2;SDS_P1;SDS_P2;PMS_P1;PMS_P2;Temp;Humidity;BMP_temperature;BMP_pressure;BME280_temperature;BME280_humidity;BME280_pressure;Samples;Min_cycle;Max_cycle;Signal;HPM_P1;HPM_P2
2023/09/11 00:00:59;;;;;;;14.25;11.20;;;20.30;99.90;;;;;;5042908;28;20052;-73
2023/09/11 00:03:24;;;;;;;16.98;10.73;;;20.30;99.90;;;;;;5044573;28;20040;-73
2023/09/11 00:05:50;;;;;;;15.50;9.77;;;20.30;99.90;;;;;;5043883;28;20427;-73
2023/09/11 00:08:16;;;;;;;13.75;11.00;;;20.20;99.90;;;;;;5043736;28;20084;-73
2023/09/11 00:10:41;;;;;;;16.83;10.15;;;20.20;99.90;;;;;;5044418;28;20321;-73
2023/09/11 00:13:07;;;;;;;14.77;10.65;;;20.20;99.90;;;;;;5044966;28;20037;-74
2023/09/11 00:15:34;;;;;;;17.10;11.57;;;20.20;99.90;;;;;;5042615;28;20086;-74
2023/09/11 00:18:00;;;;;;;19.05;11.55;;;20.20;99.90;;;;;;5044167;28;20045;-73
2023/09/11 00:20:26;;;;;;;22.33;11.50;;;20.10;99.90;;;;;;5042359;28;20466;-72
2023/09/11 00:22:51;;;;;;;19.33;12.18;;;20.10;99.90;;;;;;5043889;28;20061;-73
2023/09/11 00:25:17;;;;;;;25.38;11.85;;;20.10;99.90;;;;;;5043685;28;20131;-73
2023/09/11 00:27:43;;;;;;;16.42;10.88;;;20.10;99.90;;;;;;5042607;28;20252;-74
2023/09/11 00:30:09;;;;;;;13.95;11.30;;;20.10;99.90;;;;;;5044375;28;20079;-76
2023/09/11 00:32:34;;;;;;;17.80;11.25;;;20.00;99.90;;;;;;5043860;28;20041;-72
2023/09/11 00:35:00;;;;;;;18.58;11.00;;;20.00;99.90;;;;;;5042076;28;20045;-73
2023/09/11 00:37:26;;;;;;;14.90;10.68;;;20.10;99.90;;;;;;5042666;28;20116;-73
2023/09/11 00:39:51;;;;;;;19.92;11.40;;;20.00;99.90;;;;;;5043654;28;20060;-73
2023/09/11 00:42:17;;;;;;;18.17;11.10;;;20.00;99.90;;;;;;5043664;28;20224;-74
2023/09/11 00:44:43;;;;;;;18.88;11.20;;;20.00;99.90;;;;;;5042699;28;20124;-73
2023/09/11 00:47:09;;;;;;;19.83;11.43;;;20.00;99.90;;;;;;5042723;28;20052;-76
2023/09/11 00:49:35;;;;;;;19.92;12.10;;;20.00;99.90;;;;;;5044177;28;20723;-73
2023/09/11 00:52:01;;;;;;;15.98;10.85;;;19.90;99.90;;;;;;5042874;28;20499;-73
2023/09/11 00:54:27;;;;;;;19.88;10.07;;;19.90;99.90;;;;;;5043819;28;20130;-73
2023/09/11 00:56:53;;;;;;;16.02;10.60;;;19.90;99.90;;;;;;5043265;28;20091;-73
2023/09/11 00:59:19;;;;;;;15.07;10.85;;;19.90;99.90;;;;;;5042284;28;20052;-72
2023/09/11 01:01:46;;;;;;;18.15;11.93;;;19.90;99.90;;;;;;5041394;28;20104;-73
2023/09/11 01:04:13;;;;;;;17.05;11.43;;;19.90;99.90;;;;;;5041379;28;20084;-72
2023/09/11 01:06:38;;;;;;;17.65;11.07;;;19.80;99.90;;;;;;5024349;28;20048;-76
2023/09/11 01:09:04;;;;;;;17.45;10.93;;;19.80;99.90;;;;;;5043670;28;20602;-73
2023/09/11 01:11:30;;;;;;;16.65;10.82;;;19.80;99.90;;;;;;5042869;28;20045;-73
2023/09/11 01:13:57;;;;;;;14.77;11.68;;;19.80;99.90;;;;;;5099909;23;20042;-73
2023/09/11 01:16:49;;;;;;;18.60;11.38;;;19.80;99.90;;;;;;5003090;28;20180;-72
2023/09/11 01:19:27;;;;;;;15.55;10.77;;;19.80;99.90;;;;;;4969537;28;20531;-74
2023/09/11 01:22:26;;;;;;;15.13;10.75;;;19.80;99.90;;;;;;4999235;28;20057;-73
2023/09/11 01:25:07;;;;;;;16.25;10.57;;;19.70;99.90;;;;;;5003717;28;20632;-73
2023/09/11 01:28:07;;;;;;;24.47;11.37;;;19.70;99.90;;;;;;4985449;28;20124;-73
2023/09/11 01:30:34;;;;;;;15.48;11.15;;;19.70;99.90;;;;;;4985305;28;20049;-72
2023/09/11 01:33:00;;;;;;;23.05;11.65;;;19.70;99.90;;;;;;5002764;28;20034;-73
2023/09/11 01:35:26;;;;;;;19.80;10.35;;;19.70;99.90;;;;;;5013188;28;20064;-74
2023/09/11 01:37:51;;;;;;;16.38;11.05;;;19.60;99.90;;;;;;5023060;28;20030;-74
2023/09/11 01:40:19;;;;;;;17.42;11.45;;;19.60;99.90;;;;;;5007992;28;20049;-73
2023/09/11 01:42:53;;;;;;;14.93;11.57;;;19.60;99.90;;;;;;5003379;28;20041;-72
2023/09/11 01:45:20;;;;;;;21.85;11.07;;;19.60;99.90;;;;;;5002181;28;20111;-74
2023/09/11 01:47:50;;;;;;;17.05;11.18;;;19.60;99.90;;;;;;5003104;28;20042;-73
2023/09/11 01:50:17;;;;;;;15.52;10.45;;;19.60;99.90;;;;;;5002420;28;20041;-73
2023/09/11 01:52:51;;;;;;;15.05;11.43;;;19.60;99.90;;;;;;5003589;28;20479;-73
2023/09/11 01:55:17;;;;;;;17.17;10.75;;;19.50;99.90;;;;;;5003025;28;20050;-74
2023/09/11 01:57:43;;;;;;;17.58;11.13;;;19.50;99.90;;;;;;4985362;28;20061;-73
2023/09/11 02:00:09;;;;;;;17.15;10.23;;;19.50;99.90;;;;;;5001504;28;20053;-75
2023/09/11 02:02:35;;;;;;;16.40;12.13;;;19.50;99.90;;;;;;5003372;28;20112;-73
2023/09/11 02:05:01;;;;;;;14.27;10.63;;;19.50;99.90;;;;;;5017657;28;20124;-73
2023/09/11 02:07:27;;;;;;;16.30;10.88;;;19.50;99.90;;;;;;4992034;28;20050;-73
2023/09/11 02:09:53;;;;;;;15.80;11.07;;;19.50;99.90;;;;;;5001548;28;20308;-74
2023/09/11 02:12:18;;;;;;;16.80;11.68;;;19.50;99.90;;;;;;4979920;28;20042;-74
2023/09/11 02:14:44;;;;;;;19.50;12.02;;;19.50;99.90;;;;;;4985040;28;20532;-73
2023/09/11 02:17:09;;;;;;;17.85;11.20;;;19.40;99.90;;;;;;5002143;28;20063;-73
2023/09/11 02:19:35;;;;;;;14.63;10.38;;;19.50;99.90;;;;;;5003394;28;20049;-72
2023/09/11 02:22:01;;;;;;;18.50;11.55;;;19.50;99.90;;;;;;5001823;28;20512;-73
2023/09/11 02:24:26;;;;;;;17.65;11.70;;;19.40;99.90;;;;;;5002226;28;20049;-73
2023/09/11 02:26:55;;;;;;;20.40;11.60;;;19.40;99.90;;;;;;5002734;28;20230;-72
2023/09/11 02:29:20;;;;;;;19.00;12.82;;;19.40;99.90;;;;;;5002733;28;20147;-73
2023/09/11 02:31:46;;;;;;;19.83;11.55;;;19.40;99.90;;;;;;4968871;28;20120;-73
2023/09/11 02:34:12;;;;;;;16.05;11.32;;;19.40;99.90;;;;;;5000542;28;20045;-72
2023/09/11 02:36:37;;;;;;;20.38;10.55;;;19.40;99.90;;;;;;4984061;28;20477;-74
2023/09/11 02:39:03;;;;;;;15.80;9.90;;;19.40;99.90;;;;;;4985175;28;20049;-73
2023/09/11 02:41:29;;;;;;;19.55;11.77;;;19.40;99.90;;;;;;5005743;28;20554;-74
2023/09/11 02:43:55;;;;;;;15.85;12.20;;;19.40;99.90;;;;;;5025452;28;20095;-73
2023/09/11 02:46:21;;;;;;;20.92;11.70;;;19.30;99.90;;;;;;5021394;28;20049;-73
2023/09/11 02:48:47;;;;;;;17.20;10.20;;;19.30;99.90;;;;;;5006401;28;20076;-74
2023/09/11 02:51:13;;;;;;;16.77;10.77;;;19.30;99.90;;;;;;5005156;28;20041;-72
2023/09/11 02:53:39;;;;;;;17.95;11.45;;;19.30;99.90;;;;;;5006216;28;20030;-74
2023/09/11 02:56:04;;;;;;;19.98;11.52;;;19.30;99.90;;;;;;4999080;28;20046;-72
2023/09/11 02:58:30;;;;;;;16.27;11.23;;;19.30;99.90;;;;;;5004529;28;20081;-74
2023/09/11 03:01:04;;;;;;;17.42;10.55;;;19.30;99.90;;;;;;5005916;28;20042;-74
2023/09/11 03:03:30;;;;;;;18.05;11.25;;;19.30;99.90;;;;;;5021653;28;20133;-73
2023/09/11 03:05:57;;;;;;;19.20;11.43;;;19.30;99.90;;;;;;5003864;28;20041;-73
2023/09/11 03:08:22;;;;;;;20.42;11.43;;;19.30;99.90;;;;;;5005442;28;20092;-73
2023/09/11 03:10:48;;;;;;;20.92;11.57;;;19.30;99.90;;;;;;5006010;28;20042;-72
2023/09/11 03:13:14;;;;;;;18.98;11.40;;;19.30;99.90;;;;;;5005576;28;20049;-72
2023/09/11 03:15:39;;;;;;;15.27;9.98;;;19.20;99.90;;;;;;5005122;28;20860;-73
2023/09/11 03:18:05;;;;;;;19.73;12.68;;;19.20;99.90;;;;;;5024962;28;20120;-74
2023/09/11 03:20:31;;;;;;;17.65;11.70;;;19.20;99.90;;;;;;5020585;28;20034;-73
2023/09/11 03:22:59;;;;;;;19.10;11.40;;;19.20;99.90;;;;;;5000232;28;20045;-73
2023/09/11 03:25:26;;;;;;;21.85;12.77;;;19.20;99.90;;;;;;5005429;28;20321;-73
2023/09/11 03:27:52;;;;;;;19.35;10.68;;;19.20;99.90;;;;;;5006104;28;20077;-73
2023/09/11 03:30:18;;;;;;;20.50;10.98;;;19.20;99.90;;;;;;5004906;28;20044;-73
2023/09/11 03:32:43;;;;;;;18.23;11.80;;;19.20;99.90;;;;;;5004310;28;20124;-74
2023/09/11 03:35:09;;;;;;;19.23;11.65;;;19.20;99.90;;;;;;5002778;28;20042;-74
2023/09/11 03:37:35;;;;;;;16.85;12.57;;;19.20;99.90;;;;;;5005833;28;20066;-72
2023/09/11 03:40:07;;;;;;;17.70;11.38;;;19.20;99.90;;;;;;5005266;28;20038;-73
2023/09/11 03:42:33;;;;;;;15.53;11.63;;;19.10;99.90;;;;;;4987874;28;20396;-72
2023/09/11 03:45:00;;;;;;;14.65;11.10;;;19.20;99.90;;;;;;4987942;28;20285;-72
2023/09/11 03:47:25;;;;;;;22.40;12.20;;;19.10;99.90;;;;;;4990947;28;20084;-74
2023/09/11 03:49:51;;;;;;;18.63;10.75;;;19.10;99.90;;;;;;5016648;28;20088;-72
2023/09/11 03:52:17;;;;;;;18.10;11.50;;;19.20;99.90;;;;;;5006160;28;20075;-73
2023/09/11 03:54:42;;;;;;;22.48;11.43;;;19.10;99.90;;;;;;5006148;28;20121;-74
2023/09/11 03:57:08;;;;;;;15.40;10.73;;;19.20;99.90;;;;;;5000204;28;20038;-73
2023/09/11 03:59:33;;;;;;;23.45;12.57;;;19.20;99.90;;;;;;5004875;28;20400;-72
2023/09/11 04:01:59;;;;;;;21.63;12.70;;;19.10;99.90;;;;;;5004945;28;20034;-73
2023/09/11 04:04:25;;;;;;;17.95;12.13;;;19.10;99.90;;;;;;5003019;28;20146;-73
2023/09/11 04:06:50;;;;;;;19.88;11.23;;;19.20;99.90;;;;;;5004804;28;20545;-73
2023/09/11 04:09:16;;;;;;;21.90;13.05;;;19.20;99.90;;;;;;5004154;28;20081;-73
2023/09/11 04:11:41;;;;;;;20.40;12.52;;;19.20;99.90;;;;;;5004942;28;20041;-73
2023/09/11 04:14:07;;;;;;;19.50;12.60;;;19.20;99.90;;;;;;5004494;28;20076;-72
2023/09/11 04:16:33;;;;;;;18.70;12.10;;;19.20;99.90;;;;;;5003830;28;20042;-74
2023/09/11 04:18:58;;;;;;;24.75;12.10;;;19.20;99.90;;;;;;4994399;28;20045;-73
2023/09/11 04:21:24;;;;;;;24.80;13.40;;;19.20;99.90;;;;;;5005704;28;20539;-73
2023/09/11 04:23:49;;;;;;;22.27;12.77;;;19.20;99.90;;;;;;5012965;28;20067;-72
2023/09/11 04:26:15;;;;;;;21.85;12.93;;;19.20;99.90;;;;;;5004653;28;20038;-73
2023/09/11 04:28:41;;;;;;;21.98;13.45;;;19.20;99.90;;;;;;4987160;28;20049;-73
2023/09/11 04:31:06;;;;;;;21.35;13.07;;;19.20;99.90;;;;;;4987407;28;20046;-73
2023/09/11 04:33:33;;;;;;;17.50;11.77;;;19.20;99.90;;;;;;5003133;28;20639;-73
2023/09/11 04:35:59;;;;;;;20.73;12.43;;;19.20;99.90;;;;;;5012973;28;20120;-72
2023/09/11 04:38:24;;;;;;;20.25;12.27;;;19.20;99.90;;;;;;5023727;28;20516;-73
2023/09/11 04:40:56;;;;;;;21.25;12.63;;;19.20;99.90;;;;;;5008477;28;20575;-73
2023/09/11 04:43:22;;;;;;;19.00;13.50;;;19.20;99.90;;;;;;5004029;28;20085;-72
2023/09/11 04:45:48;;;;;;;23.77;13.80;;;19.20;99.90;;;;;;4994609;28;20038;-73
2023/09/11 04:48:13;;;;;;;18.02;11.20;;;19.20;99.90;;;;;;5003157;28;20045;-72
2023/09/11 04:50:39;;;;;;;22.67;11.70;;;19.10;99.90;;;;;;5003033;28;20539;-74
2023/09/11 04:53:04;;;;;;;20.98;13.55;;;19.10;99.90;;;;;;5004292;28;20208;-73
2023/09/11 04:55:30;;;;;;;21.33;11.57;;;19.10;99.90;;;;;;5002233;28;20046;-73
2023/09/11 04:57:56;;;;;;;23.48;12.80;;;19.10;99.90;;;;;;4993647;28;20482;-72
2023/09/11 05:00:21;;;;;;;21.52;13.93;;;19.10;99.90;;;;;;5003615;28;20045;-72
2023/09/11 05:02:48;;;;;;;20.50;12.63;;;19.10;99.90;;;;;;5003092;28;20042;-73
2023/09/11 05:05:14;;;;;;;21.35;12.77;;;19.00;99.90;;;;;;5004378;28;20045;-73
2023/09/11 05:07:40;;;;;;;16.42;10.88;;;19.10;99.90;;;;;;5000627;28;20030;-74
2023/09/11 05:10:08;;;;;;;22.30;12.90;;;19.10;99.90;;;;;;5002785;28;20747;-73
2023/09/11 05:12:33;;;;;;;21.08;13.10;;;19.10;99.90;;;;;;5000860;28;20112;-75
2023/09/11 05:14:59;;;;;;;19.33;12.60;;;19.00;99.90;;;;;;4999341;28;20495;-73
2023/09/11 05:17:25;;;;;;;18.27;12.32;;;19.10;99.90;;;;;;5003659;28;20070;-73
2023/09/11 05:19:51;;;;;;;21.10;13.80;;;19.00;99.90;;;;;;5001928;28;20073;-74
2023/09/11 05:22:16;;;;;;;22.27;12.73;;;19.00;99.90;;;;;;4986181;28;20616;-75
2023/09/11 05:24:42;;;;;;;22.25;14.15;;;19.00;99.90;;;;;;4986380;28;20555;-74
2023/09/11 05:27:07;;;;;;;21.55;14.25;;;19.00;99.90;;;;;;5004473;28;20113;-74
2023/09/11 05:29:33;;;;;;;20.77;13.35;;;19.00;99.90;;;;;;4985378;28;20129;-73
2023/09/11 05:31:59;;;;;;;24.83;12.70;;;19.00;99.90;;;;;;5003143;28;20169;-75
2023/09/11 05:34:24;;;;;;;22.13;13.32;;;19.10;99.90;;;;;;4977518;28;20141;-75
2023/09/11 05:36:50;;;;;;;21.80;13.60;;;19.00;99.90;;;;;;5020530;28;20034;-74
2023/09/11 05:39:16;;;;;;;21.48;14.48;;;19.10;99.90;;;;;;5007602;28;20418;-74
2023/09/11 05:41:41;;;;;;;22.13;13.90;;;19.00;99.90;;;;;;5010675;28;20069;-74
2023/09/11 05:44:07;;;;;;;25.30;13.77;;;19.10;99.90;;;;;;5004955;28;20072;-74
2023/09/11 05:46:32;;;;;;;18.80;14.02;;;19.10;99.90;;;;;;4998797;28;20100;-74
2023/09/11 05:48:58;;;;;;;28.33;14.05;;;19.10;99.90;;;;;;5003581;28;21062;-75
2023/09/11 05:51:23;;;;;;;18.23;13.38;;;19.10;99.90;;;;;;4998435;28;20050;-74
2023/09/11 05:53:49;;;;;;;20.92;13.68;;;19.10;99.90;;;;;;4969041;28;20488;-73
2023/09/11 05:56:15;;;;;;;23.50;13.02;;;19.10;99.90;;;;;;4981301;28;20116;-74
2023/09/11 05:58:41;;;;;;;25.35;14.38;;;19.20;99.90;;;;;;5001292;28;20038;-75
2023/09/11 06:01:07;;;;;;;20.10;13.23;;;19.20;99.90;;;;;;5002696;28;20424;-74
2023/09/11 06:03:33;;;;;;;26.38;14.20;;;19.20;99.90;;;;;;5002674;28;20040;-74
2023/09/11 06:06:01;;;;;;;21.73;14.38;;;19.20;99.90;;;;;;5005301;28;20045;-73
2023/09/11 06:08:27;;;;;;;21.58;13.85;;;19.30;99.90;;;;;;5007521;28;20033;-75
2023/09/11 06:10:52;;;;;;;23.58;13.00;;;19.30;99.90;;;;;;5002546;28;20117;-74
2023/09/11 06:13:18;;;;;;;20.98;14.07;;;19.30;99.90;;;;;;4985546;28;20034;-74
2023/09/11 06:15:44;;;;;;;22.70;15.65;;;19.30;99.90;;;;;;5008717;28;20488;-75
2023/09/11 06:18:09;;;;;;;25.60;14.07;;;19.30;99.90;;;;;;5003664;28;20030;-74
2023/09/11 06:20:35;;;;;;;26.58;15.55;;;19.40;99.90;;;;;;4983937;28;20056;-74
2023/09/11 06:23:01;;;;;;;23.88;15.20;;;19.40;99.90;;;;;;4985337;28;20042;-74
2023/09/11 06:25:27;;;;;;;23.83;13.95;;;19.40;99.90;;;;;;4968741;28;20053;-74
2023/09/11 06:27:52;;;;;;;23.30;15.10;;;19.40;99.90;;;;;;5002635;28;20037;-74
2023/09/11 06:30:18;;;;;;;27.17;15.50;;;19.50;99.90;;;;;;5002504;28;20141;-75
2023/09/11 06:32:44;;;;;;;23.73;14.30;;;19.50;99.90;;;;;;4991051;28;20145;-75
2023/09/11 06:35:12;;;;;;;27.63;15.93;;;19.50;99.90;;;;;;5000643;28;20496;-75
2023/09/11 06:37:38;;;;;;;28.67;14.65;;;19.60;99.90;;;;;;5001491;28;20096;-73
2023/09/11 06:40:07;;;;;;;22.42;15.27;;;19.60;99.90;;;;;;4969232;28;20456;-74
2023/09/11 06:42:33;;;;;;;21.10;14.38;;;19.60;99.90;;;;;;4985055;28;20042;-74
2023/09/11 06:44:59;;;;;;;27.00;14.98;;;19.70;99.90;;;;;;4968961;28;20038;-73
2023/09/11 06:47:25;;;;;;;26.50;16.08;;;19.70;99.90;;;;;;5002330;28;20045;-74
2023/09/11 06:49:50;;;;;;;24.88;16.00;;;19.70;99.90;;;;;;4984770;28;20050;-74
2023/09/11 06:52:16;;;;;;;26.95;15.82;;;19.80;99.90;;;;;;4984675;28;20050;-74
2023/09/11 06:54:42;;;;;;;26.52;15.18;;;19.80;99.90;;;;;;5000807;28;20053;-74
2023/09/11 06:57:07;;;;;;;31.00;15.35;;;19.90;99.90;;;;;;5001771;28;20395;-74
2023/09/11 06:59:34;;;;;;;29.67;15.80;;;19.90;99.90;;;;;;5002261;28;20192;-74
2023/09/11 07:01:59;;;;;;;28.85;16.25;;;19.90;99.90;;;;;;5002380;28;20053;-74
2023/09/11 07:04:25;;;;;;;25.40;15.10;;;20.00;99.90;;;;;;4999639;28;20030;-74
2023/09/11 07:06:51;;;;;;;25.05;15.45;;;20.00;99.90;;;;;;5001524;28;20042;-75
2023/09/11 07:09:17;;;;;;;30.85;15.90;;;20.00;99.90;;;;;;4984510;28;20084;-74
2023/09/11 07:11:42;;;;;;;25.38;15.60;;;20.00;99.90;;;;;;4985342;28;20408;-74
2023/09/11 07:14:12;;;;;;;28.08;17.17;;;20.10;99.90;;;;;;5014866;28;20052;-75
2023/09/11 07:16:38;;;;;;;22.55;16.20;;;20.10;99.90;;;;;;5002186;28;20501;-74
2023/09/11 07:19:04;;;;;;;27.98;17.98;;;20.10;99.90;;;;;;5001313;28;20026;-74
2023/09/11 07:21:30;;;;;;;29.85;16.95;;;20.10;99.90;;;;;;4983658;28;20181;-74
2023/09/11 07:23:56;;;;;;;29.67;17.27;;;20.20;99.90;;;;;;5001642;28;20123;-73
2023/09/11 07:26:22;;;;;;;34.05;17.77;;;20.20;99.90;;;;;;4969778;28;20562;-73
2023/09/11 07:28:58;;;;;;;28.40;17.35;;;20.20;99.90;;;;;;5004446;28;20164;-73
2023/09/11 07:31:24;;;;;;;29.98;18.33;;;20.30;99.90;;;;;;5004889;28;20042;-73
2023/09/11 07:33:50;;;;;;;29.33;18.33;;;20.40;99.90;;;;;;5005100;28;20042;-74
2023/09/11 07:36:18;;;;;;;34.13;18.02;;;20.40;99.90;;;;;;4987497;28;20091;-73
2023/09/11 07:38:44;;;;;;;30.88;18.52;;;20.40;99.90;;;;;;4987202;28;20042;-73
2023/09/11 07:41:15;;;;;;;31.80;19.70;;;20.50;99.90;;;;;;5005529;28;20104;-74
2023/09/11 07:43:42;;;;;;;30.95;18.85;;;20.60;99.90;;;;;;5005601;28;20080;-73
2023/09/11 07:46:08;;;;;;;35.83;19.17;;;20.70;99.90;;;;;;5006238;28;20078;-74
2023/09/11 07:48:35;;;;;;;28.10;18.45;;;20.70;99.90;;;;;;5005314;28;20081;-73
2023/09/11 07:51:00;;;;;;;34.13;20.73;;;20.80;99.90;;;;;;5004840;28;20096;-73
2023/09/11 07:53:26;;;;;;;35.80;20.23;;;20.80;99.90;;;;;;5003285;28;20041;-72
2023/09/11 07:55:52;;;;;;;30.77;18.17;;;20.90;99.90;;;;;;5004627;28;20041;-73
2023/09/11 07:58:18;;;;;;;26.63;17.02;;;20.90;99.90;;;;;;4987106;28;20045;-74
2023/09/11 08:00:43;;;;;;;36.15;18.42;;;21.00;99.90;;;;;;5005105;28;20057;-73
2023/09/11 08:03:09;;;;;;;25.90;17.48;;;21.10;99.90;;;;;;5004667;28;20041;-75
2023/09/11 08:05:34;;;;;;;26.17;16.90;;;21.10;99.90;;;;;;4986231;28;20092;-74
2023/09/11 08:08:02;;;;;;;27.38;16.80;;;21.20;99.90;;;;;;5004934;28;20045;-72
2023/09/11 08:10:28;;;;;;;25.35;16.38;;;21.30;99.90;;;;;;5004432;28;20046;-72
2023/09/11 08:12:54;;;;;;;23.67;15.35;;;21.30;99.90;;;;;;5004312;28;20049;-74
2023/09/11 08:15:20;;;;;;;20.95;14.18;;;21.40;99.90;;;;;;5004033;28;20054;-74
2023/09/11 08:17:45;;;;;;;20.88;13.52;;;21.40;99.90;;;;;;5005112;28;20045;-73
2023/09/11 08:20:11;;;;;;;29.63;14.98;;;21.40;99.90;;;;;;4985533;28;20060;-74
2023/09/11 08:22:37;;;;;;;22.85;14.38;;;21.50;99.90;;;;;;5005009;28;20503;-73
2023/09/11 08:25:03;;;;;;;20.63;14.27;;;21.50;99.90;;;;;;5004611;28;20046;-73
2023/09/11 08:27:29;;;;;;;20.98;14.50;;;21.60;99.90;;;;;;5003269;28;20042;-73
2023/09/11 08:29:55;;;;;;;19.95;14.25;;;21.60;99.90;;;;;;5004555;28;20598;-74
2023/09/11 08:32:21;;;;;;;19.38;14.02;;;21.70;99.90;;;;;;5002764;28;20334;-74
2023/09/11 08:34:47;;;;;;;20.58;14.60;;;21.70;99.90;;;;;;4985287;28;20045;-73
2023/09/11 08:37:12;;;;;;;20.13;14.23;;;21.80;99.90;;;;;;4985492;28;20451;-74
2023/09/11 08:39:38;;;;;;;22.75;14.20;;;21.80;99.90;;;;;;4985945;28;20077;-73
2023/09/11 08:42:04;;;;;;;21.60;15.05;;;21.90;99.90;;;;;;5004300;28;20124;-73
2023/09/11 08:44:30;;;;;;;22.52;14.82;;;21.90;99.90;;;;;;5003761;28;20046;-74
2023/09/11 08:46:59;;;;;;;18.48;13.60;;;21.90;99.90;;;;;;5004400;28;20104;-74
2023/09/11 08:49:30;;;;;;;25.83;15.88;;;22.00;99.90;;;;;;4985342;28;20049;-74
2023/09/11 08:51:59;;;;;;;26.42;15.15;;;22.10;99.90;;;;;;4986240;28;20045;-74
2023/09/11 08:54:32;;;;;;;25.10;15.35;;;22.10;99.90;;;;;;5003398;28;20042;-74
2023/09/11 08:56:59;;;;;;;20.95;14.90;;;22.10;99.90;;;;;;4964769;28;20052;-73
2023/09/11 08:59:27;;;;;;;24.33;16.08;;;22.20;99.90;;;;;;4978179;28;20092;-74
2023/09/11 09:01:53;;;;;;;24.13;15.63;;;22.20;99.90;;;;;;4985453;28;20038;-75
2023/09/11 09:04:19;;;;;;;23.58;15.60;;;22.30;99.90;;;;;;5001751;28;20088;-74
2023/09/11 09:06:46;;;;;;;23.17;13.93;;;22.30;99.90;;;;;;5002898;28;20134;-75
2023/09/11 09:09:12;;;;;;;21.88;13.43;;;22.30;99.90;;;;;;4985630;28;20040;-74
2023/09/11 09:11:40;;;;;;;20.70;14.70;;;22.40;99.90;;;;;;4985862;28;20038;-73
2023/09/11 09:14:07;;;;;;;21.92;14.50;;;22.50;99.90;;;;;;5003081;28;20173;-73
2023/09/11 09:16:33;;;;;;;22.48;12.60;;;22.50;99.90;;;;;;5002301;28;20037;-73
2023/09/11 09:18:59;;;;;;;24.15;14.07;;;22.50;99.90;;;;;;4984579;28;20030;-73
2023/09/11 09:21:25;;;;;;;24.50;14.57;;;22.50;99.90;;;;;;4999824;28;20046;-74
2023/09/11 09:23:54;;;;;;;27.40;15.60;;;22.60;99.90;;;;;;5002598;28;20045;-74
2023/09/11 09:26:22;;;;;;;21.40;13.75;;;22.60;99.90;;;;;;5003007;28;20042;-74
2023/09/11 09:28:48;;;;;;;26.75;14.73;;;22.60;99.90;;;;;;4985658;28;20044;-74
2023/09/11 09:31:26;;;;;;;28.00;14.82;;;22.60;99.90;;;;;;5002723;28;20108;-75
2023/09/11 09:33:53;;;;;;;21.80;14.85;;;22.70;99.90;;;;;;4984772;28;20103;-75
2023/09/11 09:36:19;;;;;;;22.98;14.18;;;22.70;99.90;;;;;;5002581;28;20200;-74
2023/09/11 09:38:45;;;;;;;18.52;11.77;;;22.70;99.90;;;;;;5001876;28;20127;-74
2023/09/11 09:41:11;;;;;;;19.35;12.15;;;22.80;99.90;;;;;;4984386;28;20404;-74
2023/09/11 09:43:37;;;;;;;15.48;11.00;;;22.80;99.90;;;;;;4984030;28;20457;-73
2023/09/11 09:46:23;;;;;;;18.48;11.50;;;22.80;99.90;;;;;;5001623;28;20041;-74
2023/09/11 09:48:50;;;;;;;22.42;12.77;;;22.90;99.90;;;;;;4966853;28;20048;-74
2023/09/11 09:51:15;;;;;;;17.50;12.30;;;22.90;99.90;;;;;;5002485;28;20103;-75
2023/09/11 09:53:42;;;;;;;14.48;9.90;;;22.90;99.90;;;;;;4984885;28;20062;-74
2023/09/11 09:56:10;;;;;;;17.17;11.15;;;22.90;99.90;;;;;;5002760;28;20045;-74
2023/09/11 09:58:36;;;;;;;19.25;11.63;;;22.90;99.90;;;;;;5003206;28;20034;-79
2023/09/11 10:01:16;;;;;;;16.55;10.00;;;23.00;99.90;;;;;;4985118;28;20045;-79
2023/09/11 10:03:50;;;;;;;15.88;10.10;;;23.00;99.90;;;;;;5002840;28;20239;-78
2023/09/11 10:06:18;;;;;;;15.32;9.32;;;23.00;99.90;;;;;;5001290;28;20069;-78
2023/09/11 10:08:44;;;;;;;11.73;8.20;;;23.10;99.90;;;;;;5001939;28;20049;-78
2023/09/11 10:11:32;;;;;;;13.80;8.80;;;23.10;99.90;;;;;;5001430;28;20045;-79
2023/09/11 10:13:59;;;;;;;15.10;8.20;;;23.10;99.90;;;;;;5001218;28;20072;-80
2023/09/11 10:16:26;;;;;;;11.07;7.80;;;23.10;99.90;;;;;;5003180;28;20136;-79
2023/09/11 10:18:53;;;;;;;10.73;6.72;;;23.20;99.90;;;;;;4983489;28;20042;-78
2023/09/11 10:21:19;;;;;;;11.35;6.72;;;23.20;99.90;;;;;;5002020;28;20042;-78
2023/09/11 10:23:48;;;;;;;13.57;8.43;;;23.20;99.90;;;;;;5001440;28;20054;-75
2023/09/11 10:26:23;;;;;;;14.18;8.55;;;23.30;99.90;;;;;;4968658;28;20500;-75
2023/09/11 10:28:51;;;;;;;15.30;8.32;;;23.30;99.90;;;;;;4984489;28;20053;-76
2023/09/11 10:31:21;;;;;;;12.00;6.70;;;23.30;99.90;;;;;;4983545;28;20539;-75
2023/09/11 10:33:52;;;;;;;12.40;7.32;;;23.30;99.90;;;;;;4983128;28;20053;-75
2023/09/11 10:36:22;;;;;;;10.77;7.65;;;23.30;99.90;;;;;;4983553;28;20140;-75
2023/09/11 10:38:50;;;;;;;10.73;6.03;;;23.40;99.90;;;;;;5000852;28;20030;-74
2023/09/11 10:41:15;;;;;;;10.48;6.80;;;23.40;99.90;;;;;;5000848;28;20139;-74
2023/09/11 10:43:44;;;;;;;8.38;6.50;;;23.40;99.90;;;;;;4966235;28;20046;-76
2023/09/11 10:46:22;;;;;;;11.02;7.80;;;23.40;99.90;;;;;;4973613;28;20073;-75
2023/09/11 10:48:52;;;;;;;10.32;7.22;;;23.40;99.90;;;;;;5000545;28;20120;-74
2023/09/11 10:51:18;;;;;;;9.98;6.53;;;23.50;99.90;;;;;;4981898;28;20054;-74
2023/09/11 10:53:47;;;;;;;9.30;6.63;;;23.50;99.90;;;;;;4983749;28;20563;-74
2023/09/11 10:56:13;;;;;;;7.72;5.65;;;23.50;99.90;;;;;;5000907;28;20037;-74
2023/09/11 10:58:39;;;;;;;9.73;6.13;;;23.60;99.90;;;;;;4984316;28;20034;-76
2023/09/11 11:01:05;;;;;;;8.73;4.97;;;23.60;99.90;;;;;;4997938;28;20046;-74
2023/09/11 11:03:32;;;;;;;9.00;5.47;;;23.60;99.90;;;;;;5003428;28;20084;-74
2023/09/11 11:05:59;;;;;;;8.00;4.18;;;23.60;99.90;;;;;;4987174;28;20112;-73
2023/09/11 11:08:25;;;;;;;7.18;4.80;;;23.60;99.90;;;;;;5004778;28;20603;-74
2023/09/11 11:10:58;;;;;;;6.80;4.90;;;23.60;99.90;;;;;;5004378;28;20073;-73
2023/09/11 11:13:23;;;;;;;9.15;4.30;;;23.60;99.90;;;;;;4986862;28;20054;-72
2023/09/11 11:16:15;;;;;;;6.35;4.63;;;23.60;99.90;;;;;;5004927;28;20108;-74
2023/09/11 11:18:41;;;;;;;9.00;4.23;;;23.60;99.90;;;;;;4986248;28;20357;-73
2023/09/11 11:21:09;;;;;;;7.07;4.80;;;23.60;99.90;;;;;;4988180;28;20332;-74
2023/09/11 11:23:55;;;;;;;7.32;4.85;;;23.70;99.90;;;;;;5004478;28;20088;-72
2023/09/11 11:26:24;;;;;;;8.85;5.18;;;23.70;99.90;;;;;;5004386;28;20046;-73
2023/09/11 11:28:51;;;;;;;7.25;4.63;;;23.70;99.90;;;;;;4986446;28;20061;-73
2023/09/11 11:31:21;;;;;;;7.05;4.25;;;23.80;99.90;;;;;;4993946;28;20041;-72
2023/09/11 11:33:49;;;;;;;7.28;4.80;;;23.80;99.90;;;;;;5003947;28;20077;-72
2023/09/11 11:36:17;;;;;;;5.55;4.75;;;23.80;99.90;;;;;;4986753;28;20101;-73
2023/09/11 11:38:43;;;;;;;10.95;4.53;;;23.80;99.90;;;;;;4987002;28;20052;-74
2023/09/11 11:41:10;;;;;;;6.60;5.40;;;23.80;99.90;;;;;;4986862;28;20057;-75
2023/09/11 11:43:36;;;;;;;8.55;5.22;;;23.80;99.90;;;;;;5004794;28;20045;-72
2023/09/11 11:46:05;;;;;;;11.45;5.68;;;23.80;99.90;;;;;;5005401;28;20073;-72
2023/09/11 11:48:33;;;;;;;8.10;6.35;;;23.80;99.90;;;;;;5003844;28;20050;-72
2023/09/11 11:50:59;;;;;;;8.48;6.45;;;23.80;99.90;;;;;;5004663;28;20046;-73
2023/09/11 11:53:25;;;;;;;10.30;5.68;;;23.80;99.90;;;;;;5003741;28;20112;-73
2023/09/11 11:55:52;;;;;;;10.73;6.10;;;23.80;99.90;;;;;;5004927;28;20134;-73
2023/09/11 11:58:18;;;;;;;12.23;5.57;;;23.80;99.90;;;;;;5003534;28;20301;-74
2023/09/11 12:01:00;;;;;;;10.48;5.72;;;23.80;99.90;;;;;;5003787;28;20416;-73
2023/09/11 12:03:27;;;;;;;7.45;5.93;;;23.80;99.90;;;;;;5002858;28;20124;-74
2023/09/11 12:05:54;;;;;;;10.60;6.30;;;23.80;99.90;;;;;;5003659;28;20120;-73
2023/09/11 12:08:19;;;;;;;8.00;6.60;;;23.80;99.90;;;;;;5003921;28;20042;-72
2023/09/11 12:10:48;;;;;;;10.63;6.35;;;23.70;99.90;;;;;;5003920;28;20045;-73
2023/09/11 12:13:24;;;;;;;12.13;7.25;;;23.70;99.90;;;;;;4983199;28;20056;-79
2023/09/11 12:16:00;;;;;;;14.63;6.63;;;23.70;99.90;;;;;;5023464;28;20053;-74
2023/09/11 12:18:31;;;;;;;11.80;7.80;;;23.70;99.90;;;;;;5006473;28;20042;-74
2023/09/11 12:21:05;;;;;;;16.02;8.40;;;23.70;99.90;;;;;;4986960;28;20045;-74
2023/09/11 12:23:31;;;;;;;14.68;7.53;;;23.70;99.90;;;;;;4986356;28;20112;-74
2023/09/11 12:25:57;;;;;;;12.38;8.40;;;23.70;99.90;;;;;;5003993;28;20050;-73
2023/09/11 12:28:23;;;;;;;11.85;7.75;;;23.70;99.90;;;;;;5003317;28;20515;-74
2023/09/11 12:30:50;;;;;;;12.48;8.73;;;23.70;99.90;;;;;;4987003;28;20136;-74